Time;durP1;ratioP1;P1;durP2;ratioP2;P2;SDS_P1;SDS_P2;PMS_P1;PMS_P2;Temp;Humidity;BMP_temperature;BMP_pressure;BME280_temperature;BME280_humidity;BME280_pressure;Samples;Min_cycle;Max_cycle;Signal;HPM_P1;HPM_P2
2022/05/12 00:00:16;;;;;;;;;;;11.00;99.90;;;;;;4957661;28;19930;-85
2022/05/12 00:02:44;;;;;;;;;;;11.00;99.90;;;;;;4956482;28;19973;-85
2022/05/12 00:05:14;;;;;;;;;;;11.00;99.90;;;;;;4956482;28;19937;-86
2022/05/12 00:07:43;;;;;;;;;;;10.90;99.90;;;;;;4934661;29;19926;-85
2022/05/12 00:10:11;;;;;;;;;;;10.90;99.90;;;;;;4933309;29;19927;-85
2022/05/12 00:12:41;;;;;;;;;;;10.90;99.90;;;;;;4946620;28;19937;-84
2022/05/12 00:15:11;;;;;;;;;;;10.80;99.90;;;;;;4939371;28;19934;-85
2022/05/12 00:17:39;;;;;;;;;;;10.80;99.90;;;;;;4942027;29;19983;-85
2022/05/12 00:20:08;;;;;;;;;;;10.80;99.90;;;;;;4921339;29;19934;-84
2022/05/12 00:22:36;;;;;;;;;;;10.70;99.90;;;;;;4918334;29;19941;-85
2022/05/12 00:25:04;;;;;;;;;;;11.00;99.90;;;;;;4930617;28;19930;-85
2022/05/12 00:27:32;;;;;;;;;;;10.70;99.90;;;;;;4939895;28;19933;-86
2022/05/12 00:30:00;;;;;;;;;;;10.70;99.90;;;;;;4924515;28;19926;-85
2022/05/12 00:32:27;;;;;;;;;;;10.70;99.90;;;;;;4961405;28;19938;-86
2022/05/12 00:34:55;;;;;;;;;;;10.70;99.90;;;;;;4916864;29;20398;-86
2022/05/12 00:37:22;;;;;;;;;;;10.60;99.90;;;;;;4930696;29;19926;-86
2022/05/12 00:39:50;;;;;;;;;;;10.60;99.90;;;;;;4979284;28;19926;-86
2022/05/12 00:42:18;;;;;;;;;;;10.60;99.90;;;;;;4947443;28;19922;-86
2022/05/12 00:44:45;;;;;;;;;;;10.10;99.90;;;;;;4950493;28;19929;-85
2022/05/12 00:47:13;;;;;;;;;;;10.50;99.90;;;;;;4932159;29;20029;-87
2022/05/12 00:49:44;;;;;;;;;;;10.50;99.90;;;;;;4931092;29;19926;-86
2022/05/12 00:52:18;;;;;;;;;;;10.50;99.90;;;;;;4946145;29;19934;-85
2022/05/12 00:54:47;;;;;;;;;;;10.50;99.90;;;;;;4928808;28;19930;-86
2022/05/12 00:57:16;;;;;;;;;;;10.40;99.90;;;;;;4940266;28;19926;-86
2022/05/12 00:59:43;;;;;;;;;;;10.40;99.90;;;;;;4954645;28;19941;-86
2022/05/12 01:02:14;;;;;;;;;;;10.40;99.90;;;;;;4945623;29;19926;-87
2022/05/12 01:04:43;;;;;;;;;;;10.90;99.90;;;;;;4951949;29;19938;-87
2022/05/12 01:07:11;;;;;;;;;;;10.40;99.90;;;;;;4933923;29;20504;-86
2022/05/12 01:09:38;;;;;;;;;;;10.30;99.90;;;;;;4944225;28;19926;-85
2022/05/12 01:12:06;;;;;;;;;;;9.60;99.90;;;;;;4898120;29;20676;-86
2022/05/12 01:14:34;;;;;;;;;;;10.30;99.90;;;;;;4931335;29;20294;-86
2022/05/12 01:17:02;;;;;;;;;;;10.30;99.90;;;;;;4929980;29;20298;-85
2022/05/12 01:19:31;;;;;;;;;;;10.30;99.90;;;;;;4917568;29;20398;-86
2022/05/12 01:21:59;;;;;;;;;;;10.20;99.90;;;;;;4916975;29;20008;-86
2022/05/12 01:24:31;;;;;;;;;;;10.20;99.90;;;;;;4933012;28;19926;-87
2022/05/12 01:27:19;;;;;;;;;;;11.00;99.90;;;;;;4937971;29;19941;-86
2022/05/12 01:29:49;;;;;;;;;;;10.20;99.90;;;;;;4936528;29;19930;-86
2022/05/12 01:32:18;;;;;;;;;;;10.20;99.90;;;;;;4906285;29;19930;-86
2022/05/12 01:34:45;;;;;;;;;;;10.10;99.90;;;;;;4955475;29;19927;-87
2022/05/12 01:37:13;;;;;;;;;;;10.10;99.90;;;;;;4906845;29;19930;-87
2022/05/12 01:39:40;;;;;;;;;;;10.10;99.90;;;;;;4919952;29;19926;-86
2022/05/12 01:42:09;;;;;;;;;;;10.10;99.90;;;;;;4946144;28;19926;-85
2022/05/12 01:44:37;;;;;;;;;;;10.10;99.90;;;;;;4938461;28;19931;-85
2022/05/12 01:47:08;;;;;;;;;;;10.10;99.90;;;;;;4909927;29;20031;-86
2022/05/12 01:49:36;;;;;;;;;;;10.00;99.90;;;;;;4953087;29;20283;-85
2022/05/12 01:52:04;;;;;;;;;;;10.00;99.90;;;;;;4935780;29;19927;-85
2022/05/12 01:54:31;;;;;;;;;;;10.00;99.90;;;;;;4951699;28;19926;-86
2022/05/12 01:56:59;;;;;;;;;;;10.00;99.90;;;;;;4930003;29;19934;-85
2022/05/12 01:59:26;;;;;;;;;;;10.00;99.90;;;;;;4916279;29;19933;-85
2022/05/12 02:01:54;;;;;;;;;;;10.40;99.90;;;;;;4912337;29;20337;-87
2022/05/12 02:04:21;;;;;;;;;;;10.00;99.90;;;;;;4934963;29;19934;-86
2022/05/12 02:06:49;;;;;;;;;;;10.00;99.90;;;;;;4918639;29;19937;-86
2022/05/12 02:09:16;;;;;;;;;;;9.90;99.90;;;;;;4933258;29;19926;-86
2022/05/12 02:11:44;;;;;;;;;;;9.90;99.90;;;;;;4936507;29;19930;-85
2022/05/12 02:14:12;;;;;;;;;;;9.90;99.90;;;;;;4934950;29;20405;-85
2022/05/12 02:16:39;;;;;;;;;;;9.90;99.90;;;;;;4902216;29;19927;-85
2022/05/12 02:19:07;;;;;;;;;;;9.90;99.90;;;;;;4934774;29;19937;-86
2022/05/12 02:21:34;;;;;;;;;;;9.90;99.90;;;;;;4918004;29;19926;-85
2022/05/12 02:24:02;;;;;;;;;;;9.80;99.90;;;;;;4933347;29;20429;-86
2022/05/12 02:26:30;;;;;;;;;;;8.70;99.90;;;;;;4934371;28;19926;-85
2022/05/12 02:28:58;;;;;;;;;;;9.80;99.90;;;;;;4937308;28;19937;-86
2022/05/12 02:31:25;;;;;;;;;;;9.80;99.90;;;;;;4952765;28;19927;-85
2022/05/12 02:33:53;;;;;;;;;;;9.50;99.90;;;;;;4937337;28;19949;-85
2022/05/12 02:36:21;;;;;;;;;;;9.80;99.90;;;;;;4937148;28;19926;-86
2022/05/12 02:38:49;;;;;;;;;;;9.80;99.90;;;;;;4925338;29;20264;-87
2022/05/12 02:41:17;;;;;;;;;;;9.40;99.90;;;;;;4929162;28;19934;-86
2022/05/12 02:43:44;;;;;;;;;;;9.70;99.90;;;;;;4971440;28;19937;-85
2022/05/12 02:46:13;;;;;;;;;;;9.70;99.90;;;;;;4912352;29;20030;-85
2022/05/12 02:48:43;;;;;;;;;;;10.00;99.90;;;;;;4947206;29;19927;-86
2022/05/12 02:51:11;;;;;;;;;;;9.70;99.90;;;;;;4920135;29;19930;-86
2022/05/12 02:53:39;;;;;;;;;;;9.70;99.90;;;;;;4935366;29;19926;-85
2022/05/12 02:56:07;;;;;;;;;;;9.60;99.90;;;;;;4944630;29;19931;-85
2022/05/12 02:58:42;;;;;;;;;;;9.70;99.90;;;;;;4931917;29;19930;-85
2022/05/12 03:01:10;;;;;;;;;;;9.70;99.90;;;;;;4937185;29;19931;-86
2022/05/12 03:03:38;;;;;;;;;;;9.60;99.90;;;;;;4928977;29;20407;-86
2022/05/12 03:06:05;;;;;;;;;;;9.70;99.90;;;;;;4955368;28;19931;-86
2022/05/12 03:08:32;;;;;;;;;;;9.80;99.90;;;;;;4931022;29;19926;-85
2022/05/12 03:11:02;;;;;;;;;;;9.60;99.90;;;;;;4935349;28;20295;-85
2022/05/12 03:13:31;;;;;;;;;;;9.70;99.90;;;;;;4941622;29;19931;-86
2022/05/12 03:15:59;;;;;;;;;;;9.70;99.90;;;;;;4915288;28;19926;-85
2022/05/12 03:18:27;;;;;;;;;;;9.60;99.90;;;;;;4924005;29;20302;-85
2022/05/12 03:20:54;;;;;;;;;;;9.60;99.90;;;;;;4935033;29;19930;-86
2022/05/12 03:23:23;;;;;;;;;;;9.60;99.90;;;;;;4921033;29;19939;-86
2022/05/12 03:25:51;;;;;;;;;;;9.60;99.90;;;;;;4931944;28;19926;-86
2022/05/12 03:28:18;;;;;;;;;;;9.60;99.90;;;;;;4955976;28;20708;-85
2022/05/12 03:30:47;;;;;;;;;;;9.50;99.90;;;;;;4923446;28;19930;-86
2022/05/12 03:33:15;;;;;;;;;;;9.50;99.90;;;;;;4939402;28;19926;-85
2022/05/12 03:35:43;;;;;;;;;;;9.50;99.90;;;;;;4939693;28;19926;-86
2022/05/12 03:38:11;;;;;;;;;;;9.50;99.90;;;;;;4939901;28;19933;-86
2022/05/12 03:40:38;;;;;;;;;;;9.50;99.90;;;;;;4926524;29;19927;-86
2022/05/12 03:43:06;;;;;;;;;;;8.70;99.90;;;;;;4953143;28;19933;-85
2022/05/12 03:45:33;;;;;;;;;;;9.50;99.90;;;;;;4939758;28;19926;-85
2022/05/12 03:48:01;;;;;;;;;;;9.50;99.90;;;;;;4940011;28;19937;-85
2022/05/12 03:50:29;;;;;;;;;;;9.20;99.90;;;;;;4907429;29;19930;-85
2022/05/12 03:52:56;;;;;;;;;;;9.40;99.90;;;;;;4904448;29;19930;-85
2022/05/12 03:55:26;;;;;;;;;;;9.50;99.90;;;;;;4944005;28;19937;-86
2022/05/12 03:57:55;;;;;;;;;;;9.50;99.90;;;;;;4954023;28;20339;-85
2022/05/12 04:00:25;;;;;;;;;;;9.30;99.90;;;;;;4937881;28;19946;-86
2022/05/12 04:02:53;;;;;;;;;;;9.30;99.90;;;;;;4953613;28;19926;-85
2022/05/12 04:05:21;;;;;;;;;;;9.50;99.90;;;;;;4953576;28;19926;-85
2022/05/12 04:07:51;;;;;;;;;;;9.30;99.90;;;;;;4916812;29;19946;-86
2022/05/12 04:10:19;;;;;;;;;;;8.90;99.90;;;;;;4930992;29;20438;-86
2022/05/12 04:12:47;;;;;;;;;;;9.30;99.90;;;;;;4918324;29;19927;-84
2022/05/12 04:15:15;;;;;;;;;;;9.30;99.90;;;;;;4952971;28;19931;-85
2022/05/12 04:17:44;;;;;;;;;;;9.30;99.90;;;;;;4956062;28;19933;-85
2022/05/12 04:20:14;;;;;;;;;;;9.30;99.90;;;;;;4955905;28;19930;-85
2022/05/12 04:22:45;;;;;;;;;;;9.30;99.90;;;;;;4956143;28;19930;-86
2022/05/12 04:25:12;;;;;;;;;;;9.30;99.90;;;;;;4933167;29;19926;-85
2022/05/12 04:27:41;;;;;;;;;;;9.90;99.90;;;;;;4934697;29;19926;-85
2022/05/12 04:30:11;;;;;;;;;;;8.80;99.90;;;;;;4918579;29;19933;-85
2022/05/12 04:32:39;;;;;;;;;;;9.30;99.90;;;;;;4899709;29;20001;-86
2022/05/12 04:35:11;;;;;;;;;;;9.30;99.90;;;;;;4912305;29;19930;-85
2022/05/12 04:37:41;;;;;;;;;;;9.30;99.90;;;;;;4965450;28;19930;-85
2022/05/12 04:40:10;;;;;;;;;;;9.30;99.90;;;;;;4604402;29;9999981;-86
2022/05/12 04:42:38;;;;;;;;;;;9.30;99.90;;;;;;4965516;28;19933;-86
2022/05/12 04:45:06;;;;;;;;;;;9.20;99.90;;;;;;4918374;28;19926;-85
2022/05/12 04:47:35;;;;;;;;;;;9.00;99.90;;;;;;4937882;28;19926;-86
2022/05/12 04:50:03;;;;;;;;;;;9.30;99.90;;;;;;4910983;29;19930;-86
2022/05/12 04:52:31;;;;;;;;;;;9.40;99.90;;;;;;4932200;29;20499;-85
2022/05/12 04:54:58;;;;;;;;;;;9.60;99.90;;;;;;4936508;28;19930;-86
2022/05/12 04:57:26;;;;;;;;;;;9.50;99.90;;;;;;4920484;28;20282;-85
2022/05/12 04:59:55;;;;;;;;;;;9.00;99.90;;;;;;4951286;28;19930;-85
2022/05/12 05:02:23;;;;;;;;;;;9.30;99.90;;;;;;4917406;29;20409;-85
2022/05/12 05:04:50;;;;;;;;;;;9.40;99.90;;;;;;4901583;29;19930;-86
2022/05/12 05:07:18;;;;;;;;;;;9.50;99.90;;;;;;4915988;29;19931;-84
2022/05/12 05:09:46;;;;;;;;;;;9.40;99.90;;;;;;4931910;29;19945;-84
2022/05/12 05:12:13;;;;;;;;;;;9.50;99.90;;;;;;4900492;29;19926;-87
2022/05/12 05:14:41;;;;;;;;;;;9.50;99.90;;;;;;4901555;29;20291;-85
2022/05/12 05:17:09;;;;;;;;;;;9.50;99.90;;;;;;4917550;29;19937;-86
2022/05/12 05:19:37;;;;;;;;;;;9.60;99.90;;;;;;4932684;29;19926;-85
2022/05/12 05:22:04;;;;;;;;;;;9.60;99.90;;;;;;4931090;29;19930;-86
2022/05/12 05:24:32;;;;;;;;;;;9.70;99.90;;;;;;4918192;28;19934;-86
2022/05/12 05:27:00;;;;;;;;;;;9.70;99.90;;;;;;4936885;28;19937;-86
2022/05/12 05:29:27;;;;;;;;;;;9.70;99.90;;;;;;4953127;28;19930;-86
2022/05/12 05:31:55;;;;;;;;;;;9.70;99.90;;;;;;4953399;28;20337;-86
2022/05/12 05:34:30;;;;;;;;;;;9.80;99.90;;;;;;4965370;28;19941;-85
2022/05/12 05:36:59;;;;;;;;;;;9.90;99.90;;;;;;4918421;29;20397;-86
2022/05/12 05:39:27;;;;;;;;;;;9.90;99.90;;;;;;4949132;29;19938;-86
2022/05/12 05:42:01;;;;;;;;;;;9.90;99.90;;;;;;4925921;28;20379;-86
2022/05/12 05:44:32;;;;;;;;;;;10.00;99.90;;;;;;4936467;28;19926;-86
2022/05/12 05:47:00;;;;;;;;;;;10.00;99.90;;;;;;4906310;29;19930;-86
2022/05/12 05:49:28;;;;;;;;;;;10.10;99.90;;;;;;4933914;29;19934;-85
2022/05/12 05:54:43;;;;;;;;;;;10.20;99.90;;;;;;4955180;28;19926;-85
2022/05/12 05:57:11;;;;;;;;;;;10.30;99.90;;;;;;4942735;29;19934;-85
2022/05/12 05:59:42;;;;;;;;;;;10.30;99.90;;;;;;4957009;29;19933;-86
2022/05/12 06:02:12;;;;;;;;;;;10.40;99.90;;;;;;4937036;29;20545;-86
2022/05/12 06:04:40;;;;;;;;;;;10.50;99.90;;;;;;4919821;29;20405;-86
2022/05/12 06:07:08;;;;;;;;;;;10.50;99.90;;;;;;4917797;29;20313;-85
2022/05/12 06:09:35;;;;;;;;;;;10.70;99.90;;;;;;4916414;29;19934;-86
2022/05/12 06:12:03;;;;;;;;;;;10.60;99.90;;;;;;4916587;29;19934;-86
2022/05/12 06:14:33;;;;;;;;;;;10.70;99.90;;;;;;4933687;29;19926;-86
2022/05/12 06:17:00;;;;;;;;;;;10.70;99.90;;;;;;4915772;29;20313;-85
2022/05/12 06:19:28;;;;;;;;;;;10.80;99.90;;;;;;4932627;29;20421;-85
2022/05/12 06:21:55;;;;;;;;;;;10.80;99.90;;;;;;4918635;29;19933;-87
2022/05/12 06:24:23;;;;;;;;;;;10.90;99.90;;;;;;4919961;28;19973;-87
2022/05/12 06:26:51;;;;;;;;;;;11.00;99.90;;;;;;4937843;29;19946;-87
2022/05/12 06:29:20;;;;;;;;;;;11.00;99.90;;;;;;4938560;29;19942;-87
2022/05/12 06:31:48;;;;;;;;;;;11.10;99.90;;;;;;4919229;29;20157;-87
2022/05/12 06:34:16;;;;;;;;;;;11.10;99.90;;;;;;4922872;29;19922;-87
2022/05/12 06:36:44;;;;;;;;;;;11.20;99.90;;;;;;4922818;29;19927;-87
2022/05/12 06:39:12;;;;;;;;;;;11.30;99.90;;;;;;4908744;29;19937;-86
2022/05/12 06:41:42;;;;;;;;;;;11.30;99.90;;;;;;4909817;29;19949;-87
2022/05/12 06:44:11;;;;;;;;;;;11.40;99.90;;;;;;4913552;29;19927;-87
2022/05/12 06:46:42;;;;;;;;;;;11.40;99.90;;;;;;4921715;29;19931;-88
2022/05/12 06:49:11;;;;;;;;;;;11.50;99.90;;;;;;4942929;29;19930;-89
2022/05/12 06:51:39;;;;;;;;;;;11.60;99.90;;;;;;4910337;29;19957;-88
2022/05/12 06:54:24;;;;;;;;;;;11.60;99.90;;;;;;4928152;29;19927;-88
2022/05/12 06:57:11;;;;;;;;;;;11.70;99.90;;;;;;4926777;29;19927;-88
2022/05/12 06:59:52;;;;;;;;;;;11.80;99.90;;;;;;4921879;29;19995;-88
2022/05/12 07:02:55;;;;;;;;;;;11.80;99.90;;;;;;4936413;29;19927;-88
2022/05/12 07:05:39;;;;;;;;;;;11.90;99.90;;;;;;4934769;29;19953;-88
2022/05/12 07:12:04;;;;;;;;;;;12.00;99.90;;;;;;4816346;29;19929;-88
2022/05/12 07:14:32;;;;;;;;;;;12.10;99.90;;;;;;4877845;29;19927;-89
2022/05/12 07:17:01;;;;;;;;;;;12.10;99.90;;;;;;4896667;29;20388;-87
2022/05/12 07:19:31;;;;;;;;;;;12.20;99.90;;;;;;4903923;29;19931;-86
2022/05/12 07:27:44;;;;;;;;;;;12.40;99.90;;;;;;4923281;29;19938;-88
2022/05/12 07:30:12;;;;;;;;;;;12.40;99.90;;;;;;4902329;29;19927;-87
2022/05/12 07:32:40;;;;;;;;;;;12.40;99.90;;;;;;4899389;29;19954;-87
2022/05/12 07:35:08;;;;;;;;;;;12.50;99.90;;;;;;4881993;29;20001;-88
2022/05/12 07:37:37;;;;;;;;;;;12.50;99.90;;;;;;4880989;29;20045;-88
2022/05/12 07:40:06;;;;;;;;;;;12.60;99.90;;;;;;4880658;29;19931;-87
2022/05/12 07:42:34;;;;;;;;;;;12.80;99.90;;;;;;4895318;29;19935;-87
2022/05/12 07:45:07;;;;;;;;;;;12.70;99.90;;;;;;4873499;29;19935;-87
2022/05/12 07:47:34;;;;;;;;;;;12.80;99.90;;;;;;4921447;29;20314;-87
2022/05/12 07:50:02;;;;;;;;;;;12.90;99.90;;;;;;4931161;29;20605;-88
2022/05/12 07:52:29;;;;;;;;;;;12.90;99.90;;;;;;4901958;29;19935;-88
2022/05/12 07:54:57;;;;;;;;;;;13.00;99.90;;;;;;4920901;29;19934;-87
2022/05/12 07:57:25;;;;;;;;;;;13.10;99.90;;;;;;4920399;29;19930;-89
2022/05/12 07:59:53;;;;;;;;;;;12.90;99.90;;;;;;4905294;29;19934;-89
2022/05/12 08:02:20;;;;;;;;;;;13.30;99.90;;;;;;4920209;29;19942;-89
2022/05/12 08:04:48;;;;;;;;;;;13.30;99.90;;;;;;4905808;29;19937;-88
2022/05/12 08:07:16;;;;;;;;;;;13.50;99.90;;;;;;4897207;29;20406;-88
2022/05/12 08:09:44;;;;;;;;;;;13.60;99.90;;;;;;4910403;29;19938;-88
2022/05/12 08:12:11;;;;;;;;;;;13.70;99.90;;;;;;4896359;29;19927;-88
2022/05/12 08:14:39;;;;;;;;;;;13.80;99.90;;;;;;4914693;29;19938;-88
2022/05/12 08:17:06;;;;;;;;;;;13.20;99.90;;;;;;4884131;29;20381;-88
2022/05/12 08:19:34;;;;;;;;;;;14.00;99.90;;;;;;4888968;29;19933;-88
2022/05/12 08:22:06;;;;;;;;;;;14.10;99.90;;;;;;4918653;29;19934;-88
2022/05/12 08:24:34;;;;;;;;;;;12.50;99.90;;;;;;4904831;29;19927;-88
2022/05/12 08:27:07;;;;;;;;;;;14.30;99.90;;;;;;4895668;29;19930;-88
2022/05/12 08:29:34;;;;;;;;;;;14.30;99.90;;;;;;4926860;29;19936;-88
2022/05/12 08:32:01;;;;;;;;;;;14.30;99.90;;;;;;4941349;29;19926;-88
2022/05/12 08:34:30;;;;;;;;;;;14.40;99.90;;;;;;4914284;29;19930;-88
2022/05/12 08:36:58;;;;;;;;;;;14.50;99.90;;;;;;4918478;29;19926;-87
2022/05/12 08:39:30;;;;;;;;;;;14.50;99.90;;;;;;4918530;29;20342;-89
2022/05/12 08:41:59;;;;;;;;;;;14.50;99.90;;;;;;4928503;29;19927;-89
2022/05/12 08:44:32;;;;;;;;;;;14.40;99.90;;;;;;4917034;29;19953;-89
2022/05/12 08:47:01;;;;;;;;;;;14.60;99.90;;;;;;4902081;29;20354;-88
2022/05/12 08:49:30;;;;;;;;;;;14.60;99.90;;;;;;4948683;28;19927;-89
2022/05/12 08:52:15;;;;;;;;;;;14.60;99.90;;;;;;4914252;29;19934;-88
2022/05/12 08:55:03;;;;;;;;;;;14.70;99.90;;;;;;4920714;28;19927;-88
2022/05/12 08:57:36;;;;;;;;;;;14.70;99.90;;;;;;4935660;28;19938;-88
2022/05/12 09:00:11;;;;;;;;;;;14.80;99.90;;;;;;4943456;29;19937;-88
2022/05/12 09:02:46;;;;;;;;;;;14.80;99.90;;;;;;4915001;29;20643;-87
2022/05/12 09:05:16;;;;;;;;;;;14.70;99.90;;;;;;4930607;29;19930;-88
2022/05/12 09:07:44;;;;;;;;;;;14.90;99.80;;;;;;4915016;29;19926;-88
2022/05/12 09:10:14;;;;;;;;;;;14.20;99.90;;;;;;4918669;29;19933;-87
2022/05/12 09:12:45;;;;;;;;;;;13.50;99.90;;;;;;4948413;28;19930;-88
2022/05/12 09:15:16;;;;;;;;;;;15.00;99.30;;;;;;4949891;28;20266;-89
2022/05/12 09:17:47;;;;;;;;;;;15.00;99.40;;;;;;4905760;29;19934;-87
2022/05/12 09:20:15;;;;;;;;;;;15.00;99.10;;;;;;4898683;29;19931;-87
2022/05/12 09:22:43;;;;;;;;;;;15.10;99.20;;;;;;4898207;29;19926;-87
2022/05/12 09:25:26;;;;;;;;;;;15.20;98.80;;;;;;4910435;28;20006;-88
2022/05/12 09:27:58;;;;;;;;;;;15.30;98.20;;;;;;4952491;28;19926;-90
2022/05/12 09:30:35;;;;;;;;;;;15.30;98.20;;;;;;4949197;28;20461;-87
2022/05/12 09:33:03;;;;;;;;;;;15.30;98.20;;;;;;4932240;29;19926;-87
2022/05/12 09:35:31;;;;;;;;;;;15.50;97.40;;;;;;4923525;29;19927;-88
2022/05/12 09:38:18;;;;;;;;;;;15.40;96.70;;;;;;4897985;29;19949;-89
2022/05/12 09:40:45;;;;;;;;;;;15.40;96.60;;;;;;4929040;29;20313;-89
2022/05/12 09:43:17;;;;;;;;;;;15.50;96.70;;;;;;4913619;29;19926;-89
2022/05/12 09:46:05;;;;;;;;;;;15.40;96.30;;;;;;4912743;29;19938;-89
2022/05/12 09:48:37;;;;;;;;;;;15.50;96.30;;;;;;4932207;29;19934;-88
2022/05/12 09:51:17;;;;;;;;;;;15.50;96.60;;;;;;4913946;29;19938;-89
2022/05/12 09:53:44;;;;;;;;;;;15.50;96.70;;;;;;4931476;29;20481;-89
2022/05/12 09:56:25;;;;;;;;;;;16.00;96.90;;;;;;4937220;29;19961;-90
2022/05/12 09:59:17;;;;;;;;;;;15.50;96.40;;;;;;4914740;28;20016;-88
2022/05/12 10:01:53;;;;;;;;;;;15.60;95.60;;;;;;4926555;28;19930;-90
2022/05/12 10:09:49;;;;;;;;;;;16.10;93.30;;;;;;4933362;29;19951;-90
2022/05/12 10:12:19;;;;;;;;;;;16.30;93.40;;;;;;4916445;29;19941;-90
2022/05/12 10:14:50;;;;;;;;;;;16.40;92.30;;;;;;4916691;28;19927;-90
2022/05/12 10:17:20;;;;;;;;;;;16.50;92.50;;;;;;4932364;29;19931;-91
2022/05/12 10:19:48;;;;;;;;;;;16.70;92.30;;;;;;4925122;29;19933;-87
2022/05/12 10:22:18;;;;;;;;;;;16.70;91.70;;;;;;4913055;28;19937;-87
2022/05/12 10:25:03;;;;;;;;;;;16.80;92.00;;;;;;4916437;28;19934;-88
2022/05/12 10:27:33;;;;;;;;;;;16.60;91.90;;;;;;4931154;28;19946;-88
2022/05/12 10:30:07;;;;;;;;;;;16.80;92.30;;;;;;4943300;28;19941;-88
2022/05/12 10:32:38;;;;;;;;;;;16.80;91.90;;;;;;4953650;28;19931;-89
2022/05/12 10:35:26;;;;;;;;;;;16.80;92.40;;;;;;4917117;28;19937;-90
2022/05/12 10:38:13;;;;;;;;;;;16.70;90.70;;;;;;4924841;28;20386;-89
2022/05/12 10:40:41;;;;;;;;;;;16.80;90.90;;;;;;4929881;28;20194;-90
2022/05/12 10:43:30;;;;;;;;;;;16.90;89.50;;;;;;4933195;28;19927;-90
2022/05/12 10:45:58;;;;;;;;;;;17.10;89.10;;;;;;4936106;29;20057;-90
2022/05/12 10:48:34;;;;;;;;;;;17.20;87.90;;;;;;4915722;29;19931;-90
2022/05/12 10:51:03;;;;;;;;;;;17.30;87.40;;;;;;4917813;29;19931;-90
2022/05/12 10:53:35;;;;;;;;;;;17.30;88.50;;;;;;4915446;29;19927;-91
2022/05/12 10:56:15;;;;;;;;;;;17.30;86.40;;;;;;4950203;28;19934;-90
2022/05/12 10:58:52;;;;;;;;;;;17.30;87.40;;;;;;4919359;29;20445;-88
2022/05/12 11:02:28;;;;;;;;;;;17.50;88.10;;;;;;4928808;29;19926;-88
2022/05/12 11:05:03;;;;;;;;;;;17.60;87.10;;;;;;4913129;29;20371;-91
2022/05/12 11:07:31;;;;;;;;;;;17.80;85.90;;;;;;4926234;29;20395;-91
2022/05/12 11:10:02;;;;;;;;;;;17.90;86.00;;;;;;4933928;29;19927;-90
2022/05/12 11:12:59;;;;;;;;;;;18.10;85.40;;;;;;4949650;29;19930;-88
2022/05/12 11:15:30;;;;;;;;;;;18.30;84.10;;;;;;4934440;28;19930;-88
2022/05/12 11:18:06;;;;;;;;;;;18.60;84.20;;;;;;4945007;29;19930;-87
2022/05/12 11:20:43;;;;;;;;;;;18.80;83.50;;;;;;4948058;29;19933;-88
2022/05/12 11:23:17;;;;;;;;;;;19.00;83.40;;;;;;4938157;29;19930;-88
2022/05/12 11:25:57;;;;;;;;;;;19.20;81.00;;;;;;4945786;28;19936;-92
2022/05/12 11:31:27;;;;;;;;;;;19.30;81.00;;;;;;4943872;28;19934;-91
2022/05/12 11:34:04;;;;;;;;;;;19.30;81.30;;;;;;4955207;28;19914;-89
2022/05/12 11:36:42;;;;;;;;;;;19.20;81.70;;;;;;4950434;28;19915;-91
2022/05/12 11:39:25;;;;;;;;;;;19.10;81.70;;;;;;4955943;28;19936;-88
2022/05/12 11:42:12;;;;;;;;;;;19.00;81.80;;;;;;4957375;28;19953;-89
2022/05/12 11:44:58;;;;;;;;;;;18.90;82.40;;;;;;4954094;28;19930;-87
2022/05/12 11:47:46;;;;;;;;;;;18.80;81.80;;;;;;4965891;28;19934;-86
2022/05/12 11:50:42;;;;;;;;;;;18.80;81.80;;;;;;4946995;28;19930;-87
2022/05/12 11:53:12;;;;;;;;;;;18.90;82.90;;;;;;4946040;28;19935;-92
2022/05/12 11:55:54;;;;;;;;;;;18.60;83.90;;;;;;4932453;28;19937;-91
2022/05/12 11:58:41;;;;;;;;;;;18.60;84.40;;;;;;4942199;28;19934;-91
2022/05/12 12:01:14;;;;;;;;;;;19.50;84.20;;;;;;4958991;28;19930;-90
2022/05/12 12:03:45;;;;;;;;;;;18.60;83.30;;;;;;4935375;28;19938;-91
2022/05/12 12:06:33;;;;;;;;;;;20.40;83.70;;;;;;4967056;28;20294;-89
2022/05/12 12:09:24;;;;;;;;;;;18.80;82.60;;;;;;4936478;29;19946;-89
2022/05/12 12:11:57;;;;;;;;;;;18.90;82.20;;;;;;4929778;28;19934;-90
2022/05/12 12:14:46;;;;;;;;;;;20.30;83.50;;;;;;4930680;28;19935;-92
2022/05/12 12:17:26;;;;;;;;;;;18.90;81.50;;;;;;4935270;28;19930;-92
2022/05/12 12:20:10;;;;;;;;;;;19.00;81.50;;;;;;4919334;28;19942;-92
2022/05/12 12:22:49;;;;;;;;;;;18.80;80.10;;;;;;4927272;28;19930;-88
2022/05/12 12:25:29;;;;;;;;;;;18.60;80.40;;;;;;4927148;28;19926;-91
2022/05/12 12:28:27;;;;;;;;;;;18.60;80.30;;;;;;4920593;29;19937;-86
2022/05/12 12:34:54;;;;;;;;;;;19.00;80.60;;;;;;4954411;29;19930;-92
2022/05/12 12:37:42;;;;;;;;;;;18.90;81.40;;;;;;4940344;29;19934;-90
2022/05/12 12:40:37;;;;;;;;;;;19.10;81.40;;;;;;4963002;29;19926;-89
2022/05/12 12:43:24;;;;;;;;;;;19.30;81.70;;;;;;4945319;29;19933;-86
2022/05/12 12:45:52;;;;;;;;;;;19.50;80.70;;;;;;4930970;29;19926;-88
2022/05/12 12:48:47;;;;;;;;;;;19.80;80.50;;;;;;4949280;29;19934;-86
2022/05/12 12:51:26;;;;;;;;;;;20.00;79.10;;;;;;4914046;29;19927;-87
2022/05/12 12:57:07;;;;;;;;;;;19.90;79.30;;;;;;4913516;29;20382;-88
2022/05/12 12:59:36;;;;;;;;;;;19.80;80.00;;;;;;4934288;29;19934;-85
2022/05/12 13:02:04;;;;;;;;;;;19.60;79.90;;;;;;4940009;28;20341;-87
2022/05/12 13:04:34;;;;;;;;;;;19.70;80.10;;;;;;4950552;29;19942;-89
2022/05/12 13:07:03;;;;;;;;;;;19.60;79.10;;;;;;4918223;29;19941;-86
2022/05/12 13:09:37;;;;;;;;;;;19.50;79.50;;;;;;4958575;29;19927;-85
2022/05/12 13:12:10;;;;;;;;;;;19.70;78.50;;;;;;4923958;29;19931;-88
2022/05/12 13:14:38;;;;;;;;;;;19.70;78.20;;;;;;4932783;28;20261;-86
2022/05/12 13:17:09;;;;;;;;;;;19.70;78.50;;;;;;4918793;29;19942;-89
2022/05/12 13:19:41;;;;;;;;;;;19.70;78.10;;;;;;4917248;29;19930;-91
2022/05/12 13:22:18;;;;;;;;;;;19.60;77.40;;;;;;4909585;29;20029;-87
2022/05/12 13:24:52;;;;;;;;;;;19.50;77.60;;;;;;4926940;29;19937;-89
2022/05/12 13:27:23;;;;;;;;;;;19.40;78.30;;;;;;4935198;28;19931;-89
2022/05/12 13:29:51;;;;;;;;;;;19.40;78.40;;;;;;4936320;29;19937;-90
2022/05/12 13:32:54;;;;;;;;;;;19.40;78.40;;;;;;4921681;29;20387;-90
2022/05/12 13:35:22;;;;;;;;;;;19.40;78.20;;;;;;4821348;29;19928;-92
2022/05/12 13:38:02;;;;;;;;;;;19.40;78.30;;;;;;4917677;29;19927;-92
2022/05/12 13:40:50;;;;;;;;;;;19.40;78.50;;;;;;4933628;29;19926;-90
2022/05/12 13:43:21;;;;;;;;;;;19.40;78.10;;;;;;4934161;29;19937;-90
2022/05/12 13:46:01;;;;;;;;;;;19.40;78.40;;;;;;4918550;29;19950;-90
2022/05/12 13:48:30;;;;;;;;;;;19.70;78.40;;;;;;4940644;29;19933;-92
2022/05/12 13:51:03;;;;;;;;;;;20.10;77.40;;;;;;4907770;29;20218;-91
2022/05/12 13:53:53;;;;;;;;;;;20.50;76.50;;;;;;4924643;29;19926;-90
2022/05/12 13:56:24;;;;;;;;;;;20.90;75.80;;;;;;4919679;29;19930;-89
2022/05/12 13:58:52;;;;;;;;;;;21.40;75.20;;;;;;4951912;29;20012;-92
2022/05/12 14:01:24;;;;;;;;;;;21.60;73.30;;;;;;4917134;29;19933;-91
2022/05/12 14:04:12;;;;;;;;;;;21.50;72.40;;;;;;4916117;29;19938;-89
2022/05/12 14:06:43;;;;;;;;;;;21.50;72.70;;;;;;4935355;29;19949;-90
2022/05/12 14:09:18;;;;;;;;;;;21.20;72.90;;;;;;4964857;23;19914;-82
2022/05/12 14:12:09;;;;;;;;;;;21.20;73.10;;;;;;4925204;29;19931;-81
2022/05/12 14:20:22;;;;;;;;;;;20.30;75.60;;;;;;4943993;29;19939;-82
2022/05/12 14:22:52;;;;;;;;;;;20.90;75.80;;;;;;4925068;29;19927;-79
2022/05/12 14:25:25;;;;;;;;;;;21.00;73.70;;;;;;4911114;29;19934;-81
2022/05/12 14:28:19;;;;;;;;;;;20.90;73.50;;;;;;4946016;29;19932;-80
2022/05/12 14:30:47;;;;;;;;;;;20.80;74.30;;;;;;4944449;29;19931;-81
2022/05/12 14:33:17;;;;;;;;;;;20.50;74.90;;;;;;4944609;29;19937;-80
2022/05/12 14:35:45;;;;;;;;;;;20.30;74.50;;;;;;4924265;29;19930;-81
2022/05/12 14:38:12;;;;;;;;;;;20.20;74.50;;;;;;4934912;29;19927;-81
2022/05/12 14:40:40;;;;;;;;;;;20.20;75.50;;;;;;4925013;29;19927;-81
2022/05/12 14:43:11;;;;;;;;;;;20.10;75.00;;;;;;4908549;29;19927;-81
2022/05/12 14:45:41;;;;;;;;;;;20.00;74.90;;;;;;4926375;29;19927;-81
2022/05/12 14:48:12;;;;;;;;;;;19.90;75.00;;;;;;4944398;29;21628;-81
2022/05/12 14:50:40;;;;;;;;;;;19.90;75.30;;;;;;4927588;29;19931;-81
2022/05/12 14:53:14;;;;;;;;;;;20.30;75.10;;;;;;4913508;29;19926;-81
2022/05/12 14:55:42;;;;;;;;;;;20.30;74.70;;;;;;4943414;29;19938;-81
2022/05/12 14:58:11;;;;;;;;;;;20.30;73.40;;;;;;4929174;29;19927;-80
2022/05/12 15:00:40;;;;;;;;;;;20.10;74.30;;;;;;4931148;29;19927;-81
2022/05/12 15:03:09;;;;;;;;;;;19.90;75.10;;;;;;4942854;29;19935;-83
2022/05/12 15:05:40;;;;;;;;;;;19.60;75.70;;;;;;4943388;29;19934;-81
2022/05/12 15:08:11;;;;;;;;;;;20.00;75.00;;;;;;4930257;29;19930;-81
2022/05/12 15:10:50;;;;;;;;;;;19.90;75.00;;;;;;4944873;29;19935;-80
2022/05/12 15:13:21;;;;;;;;;;;19.80;75.50;;;;;;4945336;29;19927;-80
2022/05/12 15:15:50;;;;;;;;;;;19.80;75.30;;;;;;4940252;29;19942;-80
2022/05/12 15:18:34;;;;;;;;;;;19.70;75.20;;;;;;4942834;29;19938;-80
2022/05/12 15:21:04;;;;;;;;;;;19.70;75.50;;;;;;4909703;29;19931;-79